sensor_id;sensor_type;location;lat;lon;timestamp;P1;durP1;ratioP1;P2;durP2;ratioP2
69419;SDS011;56612;52.030;113.524;2023-04-24T00:02:28;13.47;;;1.70;;
69419;SDS011;56612;52.030;113.524;2023-04-24T00:05:31;11.88;;;2.15;;
69419;SDS011;56612;52.030;113.524;2023-04-24T00:08:35;6.35;;;1.38;;
69419;SDS011;56612;52.030;113.524;2023-04-24T00:11:39;4.72;;;1.65;;
69419;SDS011;56612;52.030;113.524;2023-04-24T00:14:43;14.10;;;1.83;;
69419;SDS011;56612;52.030;113.524;2023-04-24T00:17:47;4.70;;;1.20;;
69419;SDS011;56612;52.030;113.524;2023-04-24T00:20:51;3.20;;;1.10;;
69419;SDS011;56612;52.030;113.524;2023-04-24T00:23:55;9.07;;;1.73;;
69419;SDS011;56612;52.030;113.524;2023-04-24T00:26:59;10.00;;;1.40;;
69419;SDS011;56612;52.030;113.524;2023-04-24T00:30:05;4.17;;;1.20;;
69419;SDS011;56612;52.030;113.524;2023-04-24T00:33:09;11.63;;;1.80;;
69419;SDS011;56612;52.030;113.524;2023-04-24T00:36:16;9.18;;;1.55;;
69419;SDS011;56612;52.030;113.524;2023-04-24T00:39:21;5.30;;;1.40;;
69419;SDS011;56612;52.030;113.524;2023-04-24T00:42:25;6.32;;;1.80;;
69419;SDS011;56612;52.030;113.524;2023-04-24T00:45:29;8.17;;;1.77;;
69419;SDS011;56612;52.030;113.524;2023-04-24T00:48:34;7.30;;;1.70;;
69419;SDS011;56612;52.030;113.524;2023-04-24T00:51:38;8.52;;;2.22;;
69419;SDS011;56612;52.030;113.524;2023-04-24T00:54:44;9.65;;;1.98;;
69419;SDS011;56612;52.030;113.524;2023-04-24T00:57:48;5.03;;;1.27;;
69419;SDS011;56612;52.030;113.524;2023-04-24T01:00:53;5.23;;;1.60;;
69419;SDS011;56612;52.030;113.524;2023-04-24T01:03:58;7.77;;;2.10;;
69419;SDS011;56612;52.030;113.524;2023-04-24T01:07:03;11.13;;;1.88;;
69419;SDS011;56612;52.030;113.524;2023-04-24T01:10:13;12.00;;;1.77;;
69419;SDS011;56612;52.030;113.524;2023-04-24T01:13:19;6.13;;;1.10;;
69419;SDS011;56612;52.030;113.524;2023-04-24T01:16:23;2.50;;;1.10;;
69419;SDS011;56612;52.030;113.524;2023-04-24T01:19:28;8.33;;;1.40;;
69419;SDS011;56612;52.030;113.524;2023-04-24T01:22:33;8.85;;;1.80;;
69419;SDS011;56612;52.030;113.524;2023-04-24T01:25:37;5.10;;;1.80;;
69419;SDS011;56612;52.030;113.524;2023-04-24T01:28:42;10.35;;;1.80;;
69419;SDS011;56612;52.030;113.524;2023-04-24T01:31:46;18.73;;;1.80;;
69419;SDS011;56612;52.030;113.524;2023-04-24T01:34:50;6.60;;;2.20;;
69419;SDS011;56612;52.030;113.524;2023-04-24T01:37:54;15.95;;;2.42;;
69419;SDS011;56612;52.030;113.524;2023-04-24T01:40:58;8.73;;;1.80;;
69419;SDS011;56612;52.030;113.524;2023-04-24T01:44:02;7.53;;;1.27;;
69419;SDS011;56612;52.030;113.524;2023-04-24T01:47:07;6.73;;;1.50;;
69419;SDS011;56612;52.030;113.524;2023-04-24T01:50:11;3.60;;;1.70;;
69419;SDS011;56612;52.030;113.524;2023-04-24T01:53:15;8.48;;;1.90;;
69419;SDS011;56612;52.030;113.524;2023-04-24T01:56:21;12.07;;;2.15;;
69419;SDS011;56612;52.030;113.524;2023-04-24T01:59:25;11.73;;;1.67;;
69419;SDS011;56612;52.030;113.524;2023-04-24T02:02:31;12.63;;;1.50;;
69419;SDS011;56612;52.030;113.524;2023-04-24T02:05:35;6.17;;;2.00;;
69419;SDS011;56612;52.030;113.524;2023-04-24T02:08:38;3.97;;;1.20;;
69419;SDS011;56612;52.030;113.524;2023-04-24T02:11:42;4.63;;;1.60;;
69419;SDS011;56612;52.030;113.524;2023-04-24T02:14:46;5.88;;;1.55;;
69419;SDS011;56612;52.030;113.524;2023-04-24T02:17:50;9.87;;;2.00;;
69419;SDS011;56612;52.030;113.524;2023-04-24T02:20:53;9.80;;;1.80;;
69419;SDS011;56612;52.030;113.524;2023-04-24T02:23:58;6.03;;;1.50;;
69419;SDS011;56612;52.030;113.524;2023-04-24T02:27:02;8.40;;;1.50;;
69419;SDS011;56612;52.030;113.524;2023-04-24T02:30:06;7.18;;;1.70;;
69419;SDS011;56612;52.030;113.524;2023-04-24T02:33:11;14.70;;;2.03;;
69419;SDS011;56612;52.030;113.524;2023-04-24T02:36:15;5.93;;;1.10;;
69419;SDS011;56612;52.030;113.524;2023-04-24T02:39:19;7.32;;;1.48;;
69419;SDS011;56612;52.030;113.524;2023-04-24T02:42:23;9.45;;;2.40;;
69419;SDS011;56612;52.030;113.524;2023-04-24T02:45:27;3.20;;;1.20;;
69419;SDS011;56612;52.030;113.524;2023-04-24T02:48:31;4.20;;;1.13;;
69419;SDS011;56612;52.030;113.524;2023-04-24T02:51:34;9.30;;;2.53;;
69419;SDS011;56612;52.030;113.524;2023-04-24T02:54:41;13.27;;;2.20;;
69419;SDS011;56612;52.030;113.524;2023-04-24T02:57:44;14.15;;;1.70;;
69419;SDS011;56612;52.030;113.524;2023-04-24T03:00:48;20.52;;;2.28;;
69419;SDS011;56612;52.030;113.524;2023-04-24T03:03:55;5.70;;;1.30;;
69419;SDS011;56612;52.030;113.524;2023-04-24T03:07:00;11.63;;;1.63;;
69419;SDS011;56612;52.030;113.524;2023-04-24T03:10:04;9.35;;;1.60;;
69419;SDS011;56612;52.030;113.524;2023-04-24T03:13:09;9.13;;;1.60;;
69419;SDS011;56612;52.030;113.524;2023-04-24T03:16:12;4.97;;;1.50;;
69419;SDS011;56612;52.030;113.524;2023-04-24T03:19:16;9.43;;;2.20;;
69419;SDS011;56612;52.030;113.524;2023-04-24T03:22:32;5.40;;;1.47;;
69419;SDS011;56612;52.030;113.524;2023-04-24T03:25:40;7.68;;;1.60;;
69419;SDS011;56612;52.030;113.524;2023-04-24T03:28:47;6.07;;;1.58;;
69419;SDS011;56612;52.030;113.524;2023-04-24T03:31:51;17.95;;;2.65;;
69419;SDS011;56612;52.030;113.524;2023-04-24T03:34:55;6.13;;;1.60;;
69419;SDS011;56612;52.030;113.524;2023-04-24T03:37:59;14.67;;;2.00;;
69419;SDS011;56612;52.030;113.524;2023-04-24T03:41:21;3.80;;;1.55;;
69419;SDS011;56612;52.030;113.524;2023-04-24T03:44:30;3.55;;;1.42;;
69419;SDS011;56612;52.030;113.524;2023-04-24T03:47:34;5.72;;;1.67;;
69419;SDS011;56612;52.030;113.524;2023-04-24T03:50:39;7.90;;;1.70;;
69419;SDS011;56612;52.030;113.524;2023-04-24T03:53:45;8.07;;;1.60;;
69419;SDS011;56612;52.030;113.524;2023-04-24T03:56:52;6.22;;;1.60;;
69419;SDS011;56612;52.030;113.524;2023-04-24T03:59:58;9.77;;;1.70;;
69419;SDS011;56612;52.030;113.524;2023-04-24T04:03:03;11.88;;;1.90;;
69419;SDS011;56612;52.030;113.524;2023-04-24T04:06:07;8.33;;;1.80;;
69419;SDS011;56612;52.030;113.524;2023-04-24T04:09:11;14.67;;;2.93;;
69419;SDS011;56612;52.030;113.524;2023-04-24T04:12:14;11.18;;;1.85;;
69419;SDS011;56612;52.030;113.524;2023-04-24T04:15:18;17.25;;;2.33;;
69419;SDS011;56612;52.030;113.524;2023-04-24T04:18:23;8.70;;;2.08;;
69419;SDS011;56612;52.030;113.524;2023-04-24T04:21:27;5.00;;;2.00;;
69419;SDS011;56612;52.030;113.524;2023-04-24T04:24:42;6.23;;;1.67;;
69419;SDS011;56612;52.030;113.524;2023-04-24T04:27:46;3.85;;;1.48;;
69419;SDS011;56612;52.030;113.524;2023-04-24T04:30:52;9.43;;;1.63;;
69419;SDS011;56612;52.030;113.524;2023-04-24T04:34:00;5.32;;;1.45;;
69419;SDS011;56612;52.030;113.524;2023-04-24T04:37:06;4.03;;;1.57;;
69419;SDS011;56612;52.030;113.524;2023-04-24T04:40:21;4.73;;;1.43;;
69419;SDS011;56612;52.030;113.524;2023-04-24T04:43:32;5.43;;;1.40;;
69419;SDS011;56612;52.030;113.524;2023-04-24T04:46:37;11.25;;;2.10;;
69419;SDS011;56612;52.030;113.524;2023-04-24T04:49:56;9.30;;;1.70;;
69419;SDS011;56612;52.030;113.524;2023-04-24T04:53:02;11.33;;;1.60;;
69419;SDS011;56612;52.030;113.524;2023-04-24T04:56:09;15.33;;;2.30;;
69419;SDS011;56612;52.030;113.524;2023-04-24T04:59:19;7.82;;;1.90;;
69419;SDS011;56612;52.030;113.524;2023-04-24T05:02:27;18.40;;;2.58;;
69419;SDS011;56612;52.030;113.524;2023-04-24T05:05:31;5.35;;;1.67;;
69419;SDS011;56612;52.030;113.524;2023-04-24T05:08:35;9.20;;;1.67;;
69419;SDS011;56612;52.030;113.524;2023-04-24T05:11:42;7.87;;;1.73;;
69419;SDS011;56612;52.030;113.524;2023-04-24T05:14:46;60.25;;;4.45;;
69419;SDS011;56612;52.030;113.524;2023-04-24T05:17:50;17.20;;;2.03;;
69419;SDS011;56612;52.030;113.524;2023-04-24T05:20:55;11.20;;;1.80;;
69419;SDS011;56612;52.030;113.524;2023-04-24T05:23:59;8.30;;;2.03;;
69419;SDS011;56612;52.030;113.524;2023-04-24T05:27:22;13.20;;;2.07;;
69419;SDS011;56612;52.030;113.524;2023-04-24T05:30:25;3.90;;;1.65;;
69419;SDS011;56612;52.030;113.524;2023-04-24T05:33:29;10.77;;;2.03;;
69419;SDS011;56612;52.030;113.524;2023-04-24T05:36:33;6.63;;;2.65;;
69419;SDS011;56612;52.030;113.524;2023-04-24T05:39:36;8.33;;;2.00;;
69419;SDS011;56612;52.030;113.524;2023-04-24T05:42:41;16.97;;;5.57;;
69419;SDS011;56612;52.030;113.524;2023-04-24T05:45:44;5.68;;;1.83;;
69419;SDS011;56612;52.030;113.524;2023-04-24T05:48:48;5.45;;;1.67;;
69419;SDS011;56612;52.030;113.524;2023-04-24T05:51:52;8.73;;;1.90;;
69419;SDS011;56612;52.030;113.524;2023-04-24T05:54:56;10.37;;;2.30;;
69419;SDS011;56612;52.030;113.524;2023-04-24T05:58:05;9.40;;;2.43;;
69419;SDS011;56612;52.030;113.524;2023-04-24T06:01:11;7.15;;;2.05;;
69419;SDS011;56612;52.030;113.524;2023-04-24T06:04:20;6.05;;;1.63;;
69419;SDS011;56612;52.030;113.524;2023-04-24T06:07:25;51.40;;;4.78;;
69419;SDS011;56612;52.030;113.524;2023-04-24T06:10:29;8.03;;;2.30;;
69419;SDS011;56612;52.030;113.524;2023-04-24T06:13:33;31.33;;;3.03;;
69419;SDS011;56612;52.030;113.524;2023-04-24T06:17:02;10.45;;;1.83;;
69419;SDS011;56612;52.030;113.524;2023-04-24T06:20:11;12.18;;;5.30;;
69419;SDS011;56612;52.030;113.524;2023-04-24T06:23:15;8.10;;;3.05;;
69419;SDS011;56612;52.030;113.524;2023-04-24T06:26:19;10.60;;;2.07;;
69419;SDS011;56612;52.030;113.524;2023-04-24T06:29:23;10.10;;;2.67;;
69419;SDS011;56612;52.030;113.524;2023-04-24T06:32:26;11.70;;;2.10;;
69419;SDS011;56612;52.030;113.524;2023-04-24T06:35:30;7.00;;;2.05;;
69419;SDS011;56612;52.030;113.524;2023-04-24T06:38:34;47.55;;;5.28;;
69419;SDS011;56612;52.030;113.524;2023-04-24T06:41:38;16.47;;;4.40;;
69419;SDS011;56612;52.030;113.524;2023-04-24T06:44:49;5.90;;;1.80;;
69419;SDS011;56612;52.030;113.524;2023-04-24T06:47:53;7.45;;;2.03;;
69419;SDS011;56612;52.030;113.524;2023-04-24T06:50:56;15.55;;;3.67;;
69419;SDS011;56612;52.030;113.524;2023-04-24T06:54:00;12.75;;;2.20;;
69419;SDS011;56612;52.030;113.524;2023-04-24T06:57:05;7.73;;;2.20;;
69419;SDS011;56612;52.030;113.524;2023-04-24T07:00:08;8.27;;;2.23;;
69419;SDS011;56612;52.030;113.524;2023-04-24T07:03:13;19.15;;;2.58;;
69419;SDS011;56612;52.030;113.524;2023-04-24T07:06:17;6.53;;;2.13;;
69419;SDS011;56612;52.030;113.524;2023-04-24T07:09:21;7.00;;;1.90;;
69419;SDS011;56612;52.030;113.524;2023-04-24T07:12:26;22.57;;;2.87;;
69419;SDS011;56612;52.030;113.524;2023-04-24T07:15:30;6.63;;;2.20;;
69419;SDS011;56612;52.030;113.524;2023-04-24T07:18:35;7.65;;;2.33;;
69419;SDS011;56612;52.030;113.524;2023-04-24T07:21:40;14.45;;;2.33;;
69419;SDS011;56612;52.030;113.524;2023-04-24T07:24:44;6.30;;;2.25;;
69419;SDS011;56612;52.030;113.524;2023-04-24T07:27:48;8.07;;;2.20;;
69419;SDS011;56612;52.030;113.524;2023-04-24T07:30:52;11.17;;;2.90;;
69419;SDS011;56612;52.030;113.524;2023-04-24T07:33:57;7.82;;;2.05;;
69419;SDS011;56612;52.030;113.524;2023-04-24T07:37:03;8.20;;;2.20;;
69419;SDS011;56612;52.030;113.524;2023-04-24T07:40:07;11.32;;;2.92;;
69419;SDS011;56612;52.030;113.524;2023-04-24T07:43:10;12.33;;;2.27;;
69419;SDS011;56612;52.030;113.524;2023-04-24T07:46:14;6.30;;;1.70;;
69419;SDS011;56612;52.030;113.524;2023-04-24T07:49:18;7.95;;;1.60;;
69419;SDS011;56612;52.030;113.524;2023-04-24T07:52:21;7.15;;;1.90;;
69419;SDS011;56612;52.030;113.524;2023-04-24T07:55:25;5.80;;;2.42;;
69419;SDS011;56612;52.030;113.524;2023-04-24T07:58:29;5.97;;;2.57;;
69419;SDS011;56612;52.030;113.524;2023-04-24T08:01:33;5.87;;;2.40;;
69419;SDS011;56612;52.030;113.524;2023-04-24T08:04:37;5.10;;;1.73;;
69419;SDS011;56612;52.030;113.524;2023-04-24T08:07:41;4.53;;;2.00;;
69419;SDS011;56612;52.030;113.524;2023-04-24T08:10:45;6.32;;;2.53;;
69419;SDS011;56612;52.030;113.524;2023-04-24T08:13:49;4.27;;;2.20;;
69419;SDS011;56612;52.030;113.524;2023-04-24T08:16:56;7.87;;;2.33;;
69419;SDS011;56612;52.030;113.524;2023-04-24T08:20:00;14.93;;;4.07;;
69419;SDS011;56612;52.030;113.524;2023-04-24T08:23:04;73.50;;;6.30;;
69419;SDS011;56612;52.030;113.524;2023-04-24T08:26:08;12.27;;;2.88;;
69419;SDS011;56612;52.030;113.524;2023-04-24T08:29:13;16.67;;;3.40;;
69419;SDS011;56612;52.030;113.524;2023-04-24T08:32:16;9.60;;;2.43;;
69419;SDS011;56612;52.030;113.524;2023-04-24T08:35:22;10.00;;;2.50;;
69419;SDS011;56612;52.030;113.524;2023-04-24T08:38:26;9.82;;;2.90;;
69419;SDS011;56612;52.030;113.524;2023-04-24T08:41:29;13.57;;;3.25;;
69419;SDS011;56612;52.030;113.524;2023-04-24T08:44:34;17.13;;;3.00;;
69419;SDS011;56612;52.030;113.524;2023-04-24T08:47:40;8.60;;;2.60;;
69419;SDS011;56612;52.030;113.524;2023-04-24T08:50:44;15.27;;;2.65;;
69419;SDS011;56612;52.030;113.524;2023-04-24T08:53:49;6.25;;;2.08;;
69419;SDS011;56612;52.030;113.524;2023-04-24T08:56:54;11.57;;;2.95;;
69419;SDS011;56612;52.030;113.524;2023-04-24T09:00:01;11.97;;;3.10;;
69419;SDS011;56612;52.030;113.524;2023-04-24T09:03:06;14.97;;;3.07;;
69419;SDS011;56612;52.030;113.524;2023-04-24T09:06:10;11.95;;;3.00;;
69419;SDS011;56612;52.030;113.524;2023-04-24T09:09:14;14.52;;;2.58;;
69419;SDS011;56612;52.030;113.524;2023-04-24T09:12:21;22.83;;;3.50;;
69419;SDS011;56612;52.030;113.524;2023-04-24T09:15:25;6.97;;;2.00;;
69419;SDS011;56612;52.030;113.524;2023-04-24T09:18:29;9.37;;;2.07;;
69419;SDS011;56612;52.030;113.524;2023-04-24T09:21:33;10.98;;;2.72;;
69419;SDS011;56612;52.030;113.524;2023-04-24T09:24:38;19.58;;;2.50;;
69419;SDS011;56612;52.030;113.524;2023-04-24T09:27:42;7.60;;;2.38;;
69419;SDS011;56612;52.030;113.524;2023-04-24T09:30:48;10.20;;;3.23;;
69419;SDS011;56612;52.030;113.524;2023-04-24T09:34:08;5.93;;;2.20;;
69419;SDS011;56612;52.030;113.524;2023-04-24T09:37:11;10.43;;;2.60;;
69419;SDS011;56612;52.030;113.524;2023-04-24T09:40:38;6.05;;;1.80;;
69419;SDS011;56612;52.030;113.524;2023-04-24T09:43:42;20.92;;;3.53;;
69419;SDS011;56612;52.030;113.524;2023-04-24T09:46:49;15.77;;;3.40;;
69419;SDS011;56612;52.030;113.524;2023-04-24T09:49:59;5.67;;;2.30;;
69419;SDS011;56612;52.030;113.524;2023-04-24T09:53:12;6.47;;;2.13;;
69419;SDS011;56612;52.030;113.524;2023-04-24T09:56:16;10.98;;;2.38;;
69419;SDS011;56612;52.030;113.524;2023-04-24T09:59:22;7.03;;;2.42;;
69419;SDS011;56612;52.030;113.524;2023-04-24T10:02:25;21.67;;;2.63;;
69419;SDS011;56612;52.030;113.524;2023-04-24T10:05:30;6.90;;;2.70;;
69419;SDS011;56612;52.030;113.524;2023-04-24T10:11:41;5.43;;;1.80;;
69419;SDS011;56612;52.030;113.524;2023-04-24T10:14:48;12.18;;;1.83;;
69419;SDS011;56612;52.030;113.524;2023-04-24T10:17:52;5.50;;;1.73;;
69419;SDS011;56612;52.030;113.524;2023-04-24T10:20:57;9.77;;;2.20;;
69419;SDS011;56612;52.030;113.524;2023-04-24T10:24:04;5.55;;;1.75;;
69419;SDS011;56612;52.030;113.524;2023-04-24T10:27:10;7.63;;;1.90;;
69419;SDS011;56612;52.030;113.524;2023-04-24T10:30:17;9.50;;;1.80;;
69419;SDS011;56612;52.030;113.524;2023-04-24T10:33:22;5.50;;;1.60;;
69419;SDS011;56612;52.030;113.524;2023-04-24T10:36:26;8.43;;;2.13;;
69419;SDS011;56612;52.030;113.524;2023-04-24T10:39:32;5.53;;;1.75;;
69419;SDS011;56612;52.030;113.524;2023-04-24T10:42:39;10.73;;;1.80;;
69419;SDS011;56612;52.030;113.524;2023-04-24T10:46:03;8.73;;;2.00;;
69419;SDS011;56612;52.030;113.524;2023-04-24T10:49:08;8.10;;;1.93;;
69419;SDS011;56612;52.030;113.524;2023-04-24T10:52:12;25.30;;;3.47;;
69419;SDS011;56612;52.030;113.524;2023-04-24T10:55:35;6.78;;;1.33;;
69419;SDS011;56612;52.030;113.524;2023-04-24T10:58:51;23.25;;;3.47;;
69419;SDS011;56612;52.030;113.524;2023-04-24T11:01:56;6.97;;;1.50;;
69419;SDS011;56612;52.030;113.524;2023-04-24T11:05:02;4.43;;;1.00;;
69419;SDS011;56612;52.030;113.524;2023-04-24T11:08:14;5.07;;;1.10;;
69419;SDS011;56612;52.030;113.524;2023-04-24T11:11:18;9.35;;;1.50;;
69419;SDS011;56612;52.030;113.524;2023-04-24T11:14:23;6.95;;;1.30;;
69419;SDS011;56612;52.030;113.524;2023-04-24T11:17:31;4.32;;;1.30;;
69419;SDS011;56612;52.030;113.524;2023-04-24T11:20:36;3.90;;;1.17;;
69419;SDS011;56612;52.030;113.524;2023-04-24T11:23:45;5.47;;;1.57;;
69419;SDS011;56612;52.030;113.524;2023-04-24T11:26:53;6.45;;;1.30;;
69419;SDS011;56612;52.030;113.524;2023-04-24T11:29:59;6.60;;;0.90;;
69419;SDS011;56612;52.030;113.524;2023-04-24T11:33:06;6.30;;;1.40;;
69419;SDS011;56612;52.030;113.524;2023-04-24T11:36:10;8.83;;;1.50;;
69419;SDS011;56612;52.030;113.524;2023-04-24T11:39:14;13.73;;;2.43;;
69419;SDS011;56612;52.030;113.524;2023-04-24T11:42:18;8.38;;;1.77;;
69419;SDS011;56612;52.030;113.524;2023-04-24T11:45:24;10.35;;;1.40;;
69419;SDS011;56612;52.030;113.524;2023-04-24T11:48:36;5.00;;;1.40;;
69419;SDS011;56612;52.030;113.524;2023-04-24T11:51:43;11.10;;;1.60;;
69419;SDS011;56612;52.030;113.524;2023-04-24T11:54:55;9.10;;;1.40;;
69419;SDS011;56612;52.030;113.524;2023-04-24T11:58:00;8.15;;;1.30;;
69419;SDS011;56612;52.030;113.524;2023-04-24T12:01:05;5.68;;;1.73;;
69419;SDS011;56612;52.030;113.524;2023-04-24T12:04:08;4.15;;;1.42;;
69419;SDS011;56612;52.030;113.524;2023-04-24T12:07:13;5.17;;;1.70;;
69419;SDS011;56612;52.030;113.524;2023-04-24T12:10:23;8.30;;;1.80;;
69419;SDS011;56612;52.030;113.524;2023-04-24T12:13:30;6.63;;;1.48;;
69419;SDS011;56612;52.030;113.524;2023-04-24T12:16:33;5.22;;;2.03;;
69419;SDS011;56612;52.030;113.524;2023-04-24T12:19:44;4.75;;;1.85;;
69419;SDS011;56612;52.030;113.524;2023-04-24T12:22:54;12.77;;;2.00;;
69419;SDS011;56612;52.030;113.524;2023-04-24T12:26:00;18.73;;;3.20;;
69419;SDS011;56612;52.030;113.524;2023-04-24T12:29:06;11.50;;;4.85;;
69419;SDS011;56612;52.030;113.524;2023-04-24T12:32:17;12.43;;;4.47;;
69419;SDS011;56612;52.030;113.524;2023-04-24T12:35:21;15.98;;;5.88;;
69419;SDS011;56612;52.030;113.524;2023-04-24T12:38:28;25.87;;;9.10;;
69419;SDS011;56612;52.030;113.524;2023-04-24T12:42:16;27.70;;;6.80;;
69419;SDS011;56612;52.030;113.524;2023-04-24T12:45:12;32.42;;;6.97;;
69419;SDS011;56612;52.030;113.524;2023-04-24T12:48:16;19.70;;;6.10;;
69419;SDS011;56612;52.030;113.524;2023-04-24T12:51:20;11.90;;;4.63;;
69419;SDS011;56612;52.030;113.524;2023-04-24T12:54:24;14.17;;;3.67;;
69419;SDS011;56612;52.030;113.524;2023-04-24T12:57:29;11.53;;;2.93;;
69419;SDS011;56612;52.030;113.524;2023-04-24T13:00:32;12.82;;;3.90;;
69419;SDS011;56612;52.030;113.524;2023-04-24T13:03:36;9.68;;;3.30;;
69419;SDS011;56612;52.030;113.524;2023-04-24T13:06:39;4.55;;;1.55;;
69419;SDS011;56612;52.030;113.524;2023-04-24T13:09:43;10.13;;;1.67;;
69419;SDS011;56612;52.030;113.524;2023-04-24T13:12:47;5.20;;;1.30;;
69419;SDS011;56612;52.030;113.524;2023-04-24T13:15:51;13.52;;;1.65;;
69419;SDS011;56612;52.030;113.524;2023-04-24T13:18:54;10.05;;;1.42;;
69419;SDS011;56612;52.030;113.524;2023-04-24T13:21:58;8.88;;;2.28;;
69419;SDS011;56612;52.030;113.524;2023-04-24T13:25:02;5.43;;;1.40;;
69419;SDS011;56612;52.030;113.524;2023-04-24T13:28:06;7.27;;;1.47;;
69419;SDS011;56612;52.030;113.524;2023-04-24T13:31:09;5.15;;;1.67;;
69419;SDS011;56612;52.030;113.524;2023-04-24T13:34:13;6.43;;;2.00;;
69419;SDS011;56612;52.030;113.524;2023-04-24T13:37:17;6.18;;;1.65;;
69419;SDS011;56612;52.030;113.524;2023-04-24T13:40:20;25.67;;;10.20;;
69419;SDS011;56612;52.030;113.524;2023-04-24T13:43:24;43.03;;;16.33;;
69419;SDS011;56612;52.030;113.524;2023-04-24T13:46:27;59.90;;;21.02;;
69419;SDS011;56612;52.030;113.524;2023-04-24T13:49:31;67.38;;;25.67;;
69419;SDS011;56612;52.030;113.524;2023-04-24T13:52:34;84.28;;;26.90;;
69419;SDS011;56612;52.030;113.524;2023-04-24T13:55:38;66.43;;;27.30;;
69419;SDS011;56612;52.030;113.524;2023-04-24T13:58:41;82.17;;;29.83;;
69419;SDS011;56612;52.030;113.524;2023-04-24T14:01:45;97.50;;;34.13;;
69419;SDS011;56612;52.030;113.524;2023-04-24T14:04:50;94.53;;;33.08;;
69419;SDS011;56612;52.030;113.524;2023-04-24T14:07:54;93.60;;;34.22;;
69419;SDS011;56612;52.030;113.524;2023-04-24T14:10:58;103.13;;;36.47;;
69419;SDS011;56612;52.030;113.524;2023-04-24T14:14:04;106.00;;;38.40;;
69419;SDS011;56612;52.030;113.524;2023-04-24T14:17:09;97.85;;;35.83;;
69419;SDS011;56612;52.030;113.524;2023-04-24T14:20:12;101.03;;;35.83;;
69419;SDS011;56612;52.030;113.524;2023-04-24T14:23:16;88.55;;;32.92;;
69419;SDS011;56612;52.030;113.524;2023-04-24T14:26:21;109.63;;;35.97;;
69419;SDS011;56612;52.030;113.524;2023-04-24T14:29:24;115.20;;;37.03;;
69419;SDS011;56612;52.030;113.524;2023-04-24T14:32:31;111.90;;;38.58;;
69419;SDS011;56612;52.030;113.524;2023-04-24T14:35:35;100.15;;;36.20;;
69419;SDS011;56612;52.030;113.524;2023-04-24T14:38:39;114.50;;;43.50;;
69419;SDS011;56612;52.030;113.524;2023-04-24T14:41:42;121.60;;;41.47;;
69419;SDS011;56612;52.030;113.524;2023-04-24T14:44:46;109.27;;;41.07;;
69419;SDS011;56612;52.030;113.524;2023-04-24T14:47:49;113.15;;;40.63;;
69419;SDS011;56612;52.030;113.524;2023-04-24T14:50:53;127.65;;;42.55;;
69419;SDS011;56612;52.030;113.524;2023-04-24T14:53:56;134.32;;;45.60;;
69419;SDS011;56612;52.030;113.524;2023-04-24T14:56:59;114.73;;;42.27;;
69419;SDS011;56612;52.030;113.524;2023-04-24T15:00:05;129.67;;;43.83;;
69419;SDS011;56612;52.030;113.524;2023-04-24T15:03:11;104.53;;;37.28;;
69419;SDS011;56612;52.030;113.524;2023-04-24T15:06:15;117.43;;;41.45;;
69419;SDS011;56612;52.030;113.524;2023-04-24T15:09:18;162.27;;;52.30;;
69419;SDS011;56612;52.030;113.524;2023-04-24T15:12:21;144.23;;;47.13;;
69419;SDS011;56612;52.030;113.524;2023-04-24T15:15:24;147.30;;;49.20;;
69419;SDS011;56612;52.030;113.524;2023-04-24T15:18:27;185.90;;;54.75;;
69419;SDS011;56612;52.030;113.524;2023-04-24T15:21:31;183.00;;;56.42;;
69419;SDS011;56612;52.030;113.524;2023-04-24T15:24:35;183.57;;;60.88;;
69419;SDS011;56612;52.030;113.524;2023-04-24T15:27:40;203.70;;;63.53;;
69419;SDS011;56612;52.030;113.524;2023-04-24T15:30:45;212.87;;;63.73;;
69419;SDS011;56612;52.030;113.524;2023-04-24T15:33:49;174.95;;;56.50;;
69419;SDS011;56612;52.030;113.524;2023-04-24T15:36:53;137.57;;;45.80;;
69419;SDS011;56612;52.030;113.524;2023-04-24T15:39:58;128.80;;;42.90;;
69419;SDS011;56612;52.030;113.524;2023-04-24T15:43:02;117.73;;;39.33;;
69419;SDS011;56612;52.030;113.524;2023-04-24T15:46:09;89.33;;;29.57;;
69419;SDS011;56612;52.030;113.524;2023-04-24T15:49:13;90.90;;;28.27;;
69419;SDS011;56612;52.030;113.524;2023-04-24T15:52:17;132.82;;;38.95;;
69419;SDS011;56612;52.030;113.524;2023-04-24T15:55:26;155.50;;;51.25;;
69419;SDS011;56612;52.030;113.524;2023-04-24T15:58:32;168.77;;;49.07;;
69419;SDS011;56612;52.030;113.524;2023-04-24T16:01:35;125.37;;;40.73;;
69419;SDS011;56612;52.030;113.524;2023-04-24T16:04:39;147.75;;;41.58;;
69419;SDS011;56612;52.030;113.524;2023-04-24T16:07:42;138.10;;;44.95;;
69419;SDS011;56612;52.030;113.524;2023-04-24T16:10:46;149.68;;;46.70;;
69419;SDS011;56612;52.030;113.524;2023-04-24T16:13:49;189.97;;;52.50;;
69419;SDS011;56612;52.030;113.524;2023-04-24T16:16:53;173.17;;;50.43;;
69419;SDS011;56612;52.030;113.524;2023-04-24T16:19:57;154.70;;;43.78;;
69419;SDS011;56612;52.030;113.524;2023-04-24T16:23:01;117.15;;;34.90;;
69419;SDS011;56612;52.030;113.524;2023-04-24T16:26:04;86.50;;;25.13;;
69419;SDS011;56612;52.030;113.524;2023-04-24T16:29:08;90.43;;;29.33;;
69419;SDS011;56612;52.030;113.524;2023-04-24T16:32:12;92.80;;;31.00;;
69419;SDS011;56612;52.030;113.524;2023-04-24T16:35:15;64.78;;;22.15;;
69419;SDS011;56612;52.030;113.524;2023-04-24T16:38:19;68.25;;;22.65;;
69419;SDS011;56612;52.030;113.524;2023-04-24T16:41:23;48.58;;;17.52;;
69419;SDS011;56612;52.030;113.524;2023-04-24T16:44:26;37.07;;;11.23;;
69419;SDS011;56612;52.030;113.524;2023-04-24T16:47:30;25.73;;;8.77;;
69419;SDS011;56612;52.030;113.524;2023-04-24T16:50:33;32.05;;;11.45;;
69419;SDS011;56612;52.030;113.524;2023-04-24T16:53:37;32.17;;;11.38;;
69419;SDS011;56612;52.030;113.524;2023-04-24T16:56:41;42.50;;;15.43;;
69419;SDS011;56612;52.030;113.524;2023-04-24T16:59:44;46.43;;;15.97;;
69419;SDS011;56612;52.030;113.524;2023-04-24T17:02:47;44.90;;;17.03;;
69419;SDS011;56612;52.030;113.524;2023-04-24T17:05:51;45.10;;;16.05;;
69419;SDS011;56612;52.030;113.524;2023-04-24T17:08:55;74.07;;;25.90;;
69419;SDS011;56612;52.030;113.524;2023-04-24T17:11:59;73.78;;;24.10;;
69419;SDS011;56612;52.030;113.524;2023-04-24T17:15:04;70.93;;;23.63;;
69419;SDS011;56612;52.030;113.524;2023-04-24T17:18:08;59.50;;;21.97;;
69419;SDS011;56612;52.030;113.524;2023-04-24T17:21:12;59.33;;;23.83;;
69419;SDS011;56612;52.030;113.524;2023-04-24T17:24:15;94.13;;;28.33;;
69419;SDS011;56612;52.030;113.524;2023-04-24T17:27:19;75.32;;;25.77;;
69419;SDS011;56612;52.030;113.524;2023-04-24T17:30:22;72.27;;;25.40;;
69419;SDS011;56612;52.030;113.524;2023-04-24T17:33:26;74.03;;;25.10;;
69419;SDS011;56612;52.030;113.524;2023-04-24T17:36:30;80.68;;;26.02;;
69419;SDS011;56612;52.030;113.524;2023-04-24T17:39:34;85.35;;;26.63;;
69419;SDS011;56612;52.030;113.524;2023-04-24T17:42:38;81.57;;;26.60;;
69419;SDS011;56612;52.030;113.524;2023-04-24T17:45:43;97.80;;;28.27;;
69419;SDS011;56612;52.030;113.524;2023-04-24T17:48:48;92.47;;;28.37;;
69419;SDS011;56612;52.030;113.524;2023-04-24T17:51:52;101.47;;;29.13;;
69419;SDS011;56612;52.030;113.524;2023-04-24T17:54:56;96.20;;;29.35;;